createdAt,value
2018-11-02T00:00:49.142Z,17.43
2018-11-02T00:04:55.923Z,17.77
2018-11-02T00:09:05.787Z,16.23
2018-11-02T00:13:12.607Z,16.50
2018-11-02T00:17:19.312Z,15.87
2018-11-02T00:21:25.909Z,15.93
2018-11-02T00:25:32.641Z,15.47
2018-11-02T00:29:39.448Z,14.97
2018-11-02T00:33:46.117Z,14.40
2018-11-02T00:37:52.921Z,13.80
2018-11-02T00:41:59.573Z,14.60
2018-11-02T00:46:06.908Z,16.73
2018-11-02T00:50:13.970Z,16.60
2018-11-02T00:54:20.711Z,15.17
2018-11-02T00:58:27.411Z,15.43
2018-11-02T01:02:34.166Z,16.33
2018-11-02T01:06:40.932Z,16.50
2018-11-02T01:10:47.631Z,16.90
2018-11-02T01:14:54.303Z,16.57
2018-11-02T01:19:01.151Z,15.67
2018-11-02T01:23:08.068Z,15.40
2018-11-02T01:27:14.835Z,15.27
2018-11-02T01:31:21.617Z,15.03
2018-11-02T01:35:28.337Z,14.83
2018-11-02T01:39:35.086Z,15.53
2018-11-02T01:43:41.907Z,15.47
2018-11-02T01:47:48.531Z,16.13
2018-11-02T01:51:55.391Z,15.13
2018-11-02T01:56:01.977Z,12.03
2018-11-02T02:00:09.768Z,11.30
2018-11-02T02:04:16.554Z,11.37
2018-11-02T02:08:23.257Z,10.23
2018-11-02T02:12:29.977Z,9.33
2018-11-02T02:16:36.703Z,9.60
2018-11-02T02:20:43.427Z,9.23
2018-11-02T02:24:50.141Z,8.93
2018-11-02T02:28:56.843Z,8.23
2018-11-02T02:33:03.569Z,8.63
2018-11-02T02:37:10.331Z,8.23
2018-11-02T02:41:17.069Z,8.50
2018-11-02T02:45:23.785Z,6.90
2018-11-02T02:49:30.485Z,7.27
2018-11-02T02:53:37.278Z,7.63
2018-11-02T02:57:43.921Z,8.20
2018-11-02T03:01:50.635Z,9.03
2018-11-02T03:05:57.481Z,9.07
2018-11-02T03:10:04.191Z,8.80
2018-11-02T03:14:10.912Z,8.67
2018-11-02T03:18:17.601Z,8.43
2018-11-02T03:22:24.353Z,8.97
2018-11-02T03:26:30.981Z,9.43
2018-11-02T03:30:37.709Z,10.30
2018-11-02T03:34:44.406Z,10.43
2018-11-02T03:38:51.157Z,10.90
2018-11-02T03:42:57.933Z,10.33
2018-11-02T03:47:04.540Z,11.20
2018-11-02T03:51:11.253Z,10.77
2018-11-02T03:55:18.060Z,10.40
2018-11-02T03:59:24.779Z,10.53
2018-11-02T04:03:31.402Z,10.50
2018-11-02T04:07:38.175Z,10.03
2018-11-02T04:11:44.901Z,9.73
2018-11-02T04:15:51.699Z,9.60
2018-11-02T04:19:58.319Z,9.30
2018-11-02T04:24:05.001Z,8.37
2018-11-02T04:28:11.711Z,9.00
2018-11-02T04:32:18.432Z,8.57
2018-11-02T04:36:25.162Z,9.30
2018-11-02T04:40:31.862Z,9.20
2018-11-02T04:44:38.596Z,9.70
2018-11-02T04:48:45.366Z,9.90
2018-11-02T04:52:52.102Z,9.60
2018-11-02T04:56:58.924Z,9.57
2018-11-02T05:01:05.542Z,9.43
2018-11-02T05:05:12.439Z,10.87
2018-11-02T05:09:19.057Z,10.10
2018-11-02T05:13:25.824Z,9.20
2018-11-02T05:17:32.716Z,9.73
2018-11-02T05:21:39.431Z,10.27
2018-11-02T05:25:46.190Z,10.57
2018-11-02T05:29:52.883Z,10.63
2018-11-02T05:33:59.579Z,11.37
2018-11-02T05:38:06.313Z,10.33
2018-11-02T05:42:13.069Z,11.07
2018-11-02T05:46:19.834Z,11.10
2018-11-02T05:50:26.988Z,11.90
2018-11-02T05:54:33.791Z,11.67
2018-11-02T05:58:40.658Z,11.93
2018-11-02T06:02:47.496Z,12.03
2018-11-02T06:06:54.265Z,12.67
2018-11-02T06:11:01.140Z,12.17
2018-11-02T06:15:07.967Z,13.40
2018-11-02T06:19:15.272Z,14.53
2018-11-02T06:23:22.518Z,13.47
2018-11-02T06:27:31.551Z,13.30
2018-11-02T06:31:38.949Z,13.87
2018-11-02T06:35:45.801Z,13.10
2018-11-02T06:39:52.447Z,13.60
2018-11-02T06:43:59.306Z,13.60
2018-11-02T06:48:06.245Z,21.13
2018-11-02T06:52:13.034Z,14.43
2018-11-02T06:56:19.759Z,13.37
2018-11-02T07:00:27.627Z,14.23
2018-11-02T07:04:34.301Z,13.73
2018-11-02T07:08:41.205Z,13.83
2018-11-02T07:12:47.764Z,15.00
2018-11-02T07:16:54.516Z,17.90
2018-11-02T07:21:01.377Z,13.95
2018-11-02T07:25:08.714Z,13.10
2018-11-02T07:29:15.382Z,13.47
2018-11-02T07:33:22.699Z,12.83
2018-11-02T07:37:29.628Z,15.80
2018-11-02T07:41:36.440Z,12.30
2018-11-02T07:45:43.080Z,10.87
2018-11-02T07:49:52.778Z,9.83
2018-11-02T07:53:59.470Z,9.40
2018-11-02T07:58:06.428Z,8.40
2018-11-02T08:02:13.112Z,7.77
2018-11-02T08:06:19.842Z,7.60
2018-11-02T08:10:26.667Z,7.73
2018-11-02T08:14:47.687Z,7.13
2018-11-02T08:18:52.888Z,6.07
2018-11-02T08:22:59.616Z,6.30
2018-11-02T08:27:10.510Z,6.57
2018-11-02T08:31:17.152Z,6.37
2018-11-02T08:35:24.007Z,6.17
2018-11-02T08:39:30.831Z,5.90
2018-11-02T08:43:37.613Z,5.50
2018-11-02T08:47:44.532Z,5.73
2018-11-02T08:51:51.254Z,5.13
2018-11-02T08:55:58.028Z,5.00
2018-11-02T09:00:04.929Z,5.30
2018-11-02T09:04:11.544Z,5.27
2018-11-02T09:08:18.247Z,4.67
2018-11-02T09:12:33.107Z,6.07
2018-11-02T09:16:39.743Z,4.97
2018-11-02T09:20:46.578Z,5.37
2018-11-02T09:24:53.408Z,5.37
2018-11-02T09:29:00.129Z,5.70
2018-11-02T09:33:07.145Z,5.03
2018-11-02T09:37:13.834Z,5.37
2018-11-02T09:41:20.549Z,4.97
2018-11-02T09:45:27.364Z,5.90
2018-11-02T09:49:33.978Z,5.40
2018-11-02T09:53:40.682Z,7.70
2018-11-02T09:57:47.659Z,5.73
2018-11-02T10:01:56.420Z,5.43
2018-11-02T10:06:03.251Z,6.40
2018-11-02T10:10:11.459Z,5.80
2018-11-02T10:14:18.185Z,6.00
2018-11-02T10:18:24.815Z,5.93
2018-11-02T10:22:31.621Z,6.30
2018-11-02T10:26:38.259Z,6.17
2018-11-02T10:30:44.975Z,5.90
2018-11-02T10:34:52.359Z,6.33
2018-11-02T10:39:00.253Z,6.33
2018-11-02T10:43:13.283Z,6.80
2018-11-02T10:47:20.097Z,6.40
2018-11-02T10:51:26.901Z,7.10
2018-11-02T10:55:33.590Z,5.67
2018-11-02T10:59:40.541Z,6.70
2018-11-02T11:03:47.248Z,6.83
2018-11-02T11:07:54.051Z,7.53
2018-11-02T11:12:00.884Z,7.87
2018-11-02T11:16:07.710Z,8.17
2018-11-02T11:20:15.244Z,8.10
2018-11-02T11:24:21.953Z,7.20
2018-11-02T11:28:28.786Z,6.57
2018-11-02T11:32:35.424Z,6.57
2018-11-02T11:36:42.129Z,5.77
2018-11-02T11:40:48.935Z,5.57
2018-11-02T11:44:55.658Z,5.43
2018-11-02T11:49:02.638Z,5.57
2018-11-02T11:53:09.164Z,5.20
2018-11-02T11:57:15.936Z,5.07
2018-11-02T12:01:22.709Z,4.63
2018-11-02T12:05:29.436Z,5.03
2018-11-02T12:09:36.171Z,4.20
2018-11-02T12:13:42.935Z,4.10
2018-11-02T12:17:50.438Z,4.00
2018-11-02T12:21:57.065Z,4.53
2018-11-02T12:26:03.918Z,3.80
2018-11-02T12:30:14.171Z,3.67
2018-11-02T12:34:20.975Z,3.63
2018-11-02T12:38:27.707Z,3.83
2018-11-02T12:42:34.463Z,11.77
2018-11-02T12:46:41.150Z,4.27
2018-11-02T12:50:47.929Z,3.70
2018-11-02T12:54:54.714Z,3.40
2018-11-02T12:59:01.463Z,3.60
2018-11-02T13:03:08.248Z,3.93
2018-11-02T13:07:14.975Z,3.73
2018-11-02T13:11:21.670Z,4.10
2018-11-02T13:15:28.571Z,4.10
2018-11-02T13:19:35.196Z,3.70
2018-11-02T13:23:41.961Z,4.03
2018-11-02T13:27:50.132Z,3.67
2018-11-02T13:31:56.976Z,4.57
2018-11-02T13:36:03.913Z,3.87
2018-11-02T13:40:12.807Z,4.63
2018-11-02T13:44:19.671Z,4.47
2018-11-02T13:48:26.324Z,4.37
2018-11-02T13:52:33.101Z,3.73
2018-11-02T13:56:39.791Z,3.90
2018-11-02T14:00:46.554Z,3.60
2018-11-02T14:04:53.273Z,4.30
2018-11-02T14:09:00.813Z,4.20
2018-11-02T14:13:07.566Z,4.30
2018-11-02T14:17:14.344Z,3.90
2018-11-02T14:21:21.111Z,4.10
2018-11-02T14:25:27.831Z,3.80
2018-11-02T14:29:34.847Z,3.50
2018-11-02T14:33:41.661Z,3.53
2018-11-02T14:37:48.381Z,3.70
2018-11-02T14:41:55.114Z,3.20
2018-11-02T14:46:01.890Z,3.50
2018-11-02T14:50:10.293Z,3.33
2018-11-02T14:54:17.005Z,4.07
2018-11-02T14:58:23.725Z,3.80
2018-11-02T15:02:32.957Z,3.90
2018-11-02T15:06:39.575Z,3.40
2018-11-02T15:10:47.296Z,3.70
2018-11-02T15:14:54.002Z,5.10
2018-11-02T15:19:00.748Z,5.30
2018-11-02T15:23:07.828Z,5.90
2018-11-02T15:27:14.598Z,6.90
2018-11-02T15:31:21.326Z,6.73
2018-11-02T15:35:27.950Z,6.97
2018-11-02T15:39:34.677Z,5.97
2018-11-02T15:43:41.414Z,7.37
2018-11-02T15:47:48.171Z,7.33
2018-11-02T15:51:54.992Z,7.13
2018-11-02T15:56:01.826Z,6.87
2018-11-02T16:00:21.264Z,7.20
2018-11-02T16:04:27.951Z,7.73
2018-11-02T16:08:34.650Z,7.97
2018-11-02T16:12:42.040Z,6.80
2018-11-02T16:16:48.801Z,7.07
2018-11-02T16:20:55.601Z,6.93
2018-11-02T16:25:02.393Z,6.60
2018-11-02T16:29:09.153Z,7.40
2018-11-02T16:33:16.059Z,6.47
2018-11-02T16:37:22.670Z,7.47
2018-11-02T16:41:29.440Z,6.97
2018-11-02T16:45:36.171Z,6.80
2018-11-02T16:49:42.979Z,7.30
2018-11-02T16:53:49.811Z,6.67
2018-11-02T16:57:56.568Z,7.90
2018-11-02T17:02:03.274Z,7.50
2018-11-02T17:06:10.191Z,7.20
2018-11-02T17:10:17.033Z,6.90
2018-11-02T17:14:23.743Z,6.60
2018-11-02T17:18:30.746Z,6.83
2018-11-02T17:22:37.435Z,7.07
2018-11-02T17:26:44.224Z,6.20
2018-11-02T17:30:51.023Z,6.40
2018-11-02T17:34:59.073Z,6.90
2018-11-02T17:39:10.544Z,5.53
2018-11-02T17:43:19.624Z,5.83
2018-11-02T17:47:24.722Z,5.93
2018-11-02T17:51:32.692Z,5.57
2018-11-02T17:55:40.138Z,6.93
2018-11-02T17:59:51.307Z,6.00
2018-11-02T18:03:58.435Z,6.40
2018-11-02T18:08:05.521Z,5.23
2018-11-02T18:12:13.223Z,5.47
2018-11-02T18:16:20.028Z,5.50
2018-11-02T18:20:26.744Z,6.20
2018-11-02T18:24:33.487Z,5.37
2018-11-02T18:28:40.181Z,5.60
2018-11-02T18:32:46.932Z,6.13
2018-11-02T18:37:06.410Z,6.97
2018-11-02T18:41:14.311Z,6.83
2018-11-02T18:45:21.376Z,7.13
2018-11-02T18:49:28.221Z,6.87
2018-11-02T18:53:34.993Z,7.47
2018-11-02T18:57:41.732Z,7.90
2018-11-02T19:01:48.485Z,8.50
2018-11-02T19:05:55.183Z,8.50
2018-11-02T19:10:01.937Z,10.43
2018-11-02T19:14:08.697Z,10.60
2018-11-02T19:18:15.571Z,10.90
2018-11-02T19:22:22.356Z,10.17
2018-11-02T19:26:29.142Z,9.40
2018-11-02T19:30:35.866Z,9.17
2018-11-02T19:34:42.774Z,9.53
2018-11-02T19:38:49.475Z,9.07
2018-11-02T19:42:56.121Z,8.93
2018-11-02T19:47:05.236Z,8.33
2018-11-02T19:51:12.021Z,8.00
2018-11-02T19:55:18.808Z,7.80
2018-11-02T19:59:28.477Z,6.97
2018-11-02T20:03:35.247Z,6.63
2018-11-02T20:07:42.578Z,5.83
2018-11-02T20:11:49.622Z,6.07
2018-11-02T20:15:56.304Z,5.80
2018-11-02T20:20:03.234Z,5.47
2018-11-02T20:24:10.078Z,5.83
2018-11-02T20:28:17.007Z,5.93
2018-11-02T20:32:23.917Z,5.77
2018-11-02T20:36:33.146Z,6.43
2018-11-02T20:40:42.004Z,6.13
2018-11-02T20:44:46.674Z,6.53
2018-11-02T20:48:53.683Z,6.37
2018-11-02T20:53:00.258Z,6.23
2018-11-02T20:57:07.084Z,6.50
2018-11-02T21:01:13.833Z,6.87
2018-11-02T21:05:21.303Z,6.83
2018-11-02T21:09:28.361Z,5.93
2018-11-02T21:13:35.048Z,6.23
2018-11-02T21:17:47.133Z,6.30
2018-11-02T21:21:53.896Z,6.10
2018-11-02T21:26:00.588Z,6.30
2018-11-02T21:30:27.309Z,5.87
2018-11-02T21:34:34.121Z,6.40
2018-11-02T21:38:40.981Z,7.27
2018-11-02T21:42:47.857Z,7.07
2018-11-02T21:46:54.506Z,6.90
2018-11-02T21:51:01.449Z,7.97
2018-11-02T21:55:08.602Z,6.97
2018-11-02T21:59:15.324Z,7.03
2018-11-02T22:03:22.023Z,5.70
2018-11-02T22:07:28.844Z,5.70
2018-11-02T22:11:35.528Z,5.97
2018-11-02T22:15:42.353Z,6.13
2018-11-02T22:19:48.979Z,5.97
2018-11-02T22:23:55.830Z,5.83
2018-11-02T22:28:02.511Z,5.77
2018-11-02T22:32:09.435Z,5.80
2018-11-02T22:36:16.804Z,5.13
2018-11-02T22:40:23.484Z,6.10
2018-11-02T22:44:30.190Z,5.33
2018-11-02T22:48:36.966Z,5.00
2018-11-02T22:52:43.798Z,4.47
2018-11-02T22:56:50.554Z,4.60
2018-11-02T23:01:14.784Z,4.50
2018-11-02T23:05:21.539Z,4.27
2018-11-02T23:09:28.241Z,16.03
2018-11-02T23:13:35.184Z,4.90
2018-11-02T23:17:41.928Z,5.10
2018-11-02T23:21:48.776Z,5.60
2018-11-02T23:25:55.492Z,4.57
2018-11-02T23:30:02.405Z,4.10
2018-11-02T23:34:08.988Z,4.57
2018-11-02T23:38:19.037Z,4.10
2018-11-02T23:42:28.219Z,4.20
2018-11-02T23:46:37.815Z,4.10
2018-11-02T23:50:44.449Z,4.00
2018-11-02T23:54:51.169Z,4.20
2018-11-02T23:58:57.918Z,3.93
